createdAt,value
2023-12-15T00:00:53.272Z,50.53
2023-12-15T00:01:53.293Z,51.72
2023-12-15T00:02:53.309Z,50.83
2023-12-15T00:03:53.403Z,52.18
2023-12-15T00:04:53.453Z,52.53
2023-12-15T00:05:53.485Z,50.52
2023-12-15T00:06:53.524Z,50.76
2023-12-15T00:07:53.603Z,51.77
2023-12-15T00:08:53.588Z,51.60
2023-12-15T00:09:53.630Z,51.19
2023-12-15T00:10:53.725Z,50.81
2023-12-15T00:11:53.725Z,50.39
2023-12-15T00:12:53.795Z,50.52
2023-12-15T00:13:53.860Z,50.87
2023-12-15T00:14:53.869Z,51.82
2023-12-15T00:15:53.947Z,51.43
2023-12-15T00:16:54.014Z,50.68
2023-12-15T00:17:54.186Z,50.74
2023-12-15T00:18:54.171Z,51.38
2023-12-15T00:19:54.149Z,50.38
2023-12-15T00:20:54.154Z,50.69
2023-12-15T00:21:54.222Z,50.16
2023-12-15T00:22:54.266Z,50.93
2023-12-15T00:23:54.311Z,52.04
2023-12-15T00:24:54.394Z,51.16
2023-12-15T00:25:54.442Z,50.80
2023-12-15T00:26:54.480Z,51.07
2023-12-15T00:27:54.516Z,50.40
2023-12-15T00:28:54.609Z,51.21
2023-12-15T00:29:54.620Z,50.21
2023-12-15T00:30:54.724Z,51.90
2023-12-15T00:31:54.766Z,51.27
2023-12-15T00:32:54.875Z,50.79
2023-12-15T00:33:54.922Z,51.23
2023-12-15T00:34:54.924Z,51.25
2023-12-15T00:35:54.939Z,51.38
2023-12-15T00:36:55.015Z,50.54
2023-12-15T00:37:55.060Z,51.12
2023-12-15T00:38:55.103Z,50.56
2023-12-15T00:39:55.149Z,50.51
2023-12-15T00:40:55.197Z,51.28
2023-12-15T00:41:55.257Z,51.55
2023-12-15T00:42:55.328Z,50.41
2023-12-15T00:43:55.430Z,50.19
2023-12-15T00:44:55.419Z,50.84
2023-12-15T00:45:55.476Z,50.71
2023-12-15T00:46:55.530Z,50.87
2023-12-15T00:47:55.621Z,50.51
2023-12-15T00:48:55.699Z,50.56
2023-12-15T00:49:55.777Z,50.74
2023-12-15T00:50:55.735Z,50.70
2023-12-15T00:51:55.811Z,50.50
2023-12-15T00:52:55.886Z,51.86
2023-12-15T00:53:55.891Z,51.04
2023-12-15T00:54:55.962Z,50.59
2023-12-15T00:55:56.084Z,51.06
2023-12-15T00:56:56.060Z,50.38
2023-12-15T00:57:56.129Z,50.97
2023-12-15T00:58:56.193Z,50.67
2023-12-15T00:59:56.213Z,51.72
2023-12-15T01:00:56.348Z,51.07
2023-12-15T01:01:56.420Z,51.45
2023-12-15T01:02:56.446Z,51.90
2023-12-15T01:03:56.444Z,50.00
2023-12-15T01:04:56.579Z,50.22
2023-12-15T01:05:56.653Z,51.25
2023-12-15T01:06:56.609Z,50.69
2023-12-15T01:07:56.709Z,50.93
2023-12-15T01:08:56.731Z,51.35
2023-12-15T01:09:56.773Z,50.27
2023-12-15T01:10:56.866Z,50.57
2023-12-15T01:11:56.889Z,50.75
2023-12-15T01:12:56.936Z,51.22
2023-12-15T01:13:56.993Z,52.16
2023-12-15T01:14:57.039Z,50.59
2023-12-15T01:15:57.118Z,51.20
2023-12-15T01:16:57.203Z,50.00
2023-12-15T01:17:57.903Z,51.25
2023-12-15T01:18:57.385Z,51.89
2023-12-15T01:19:57.412Z,51.26
2023-12-15T01:20:57.394Z,51.38
2023-12-15T01:21:57.450Z,51.72
2023-12-15T01:22:57.524Z,50.55
2023-12-15T01:23:57.636Z,51.26
2023-12-15T01:24:57.639Z,51.56
2023-12-15T01:25:57.728Z,51.94
2023-12-15T01:26:57.715Z,52.18
2023-12-15T01:27:57.806Z,52.29
2023-12-15T01:28:57.835Z,51.19
2023-12-15T01:29:57.883Z,51.58
2023-12-15T01:30:58.036Z,50.00
2023-12-15T01:31:58.013Z,52.13
2023-12-15T01:32:58.105Z,52.36
2023-12-15T01:33:58.207Z,50.16
2023-12-15T01:34:58.274Z,52.19
2023-12-15T01:35:58.250Z,52.28
2023-12-15T01:36:58.318Z,51.63
2023-12-15T01:37:58.403Z,52.75
2023-12-15T01:38:58.431Z,51.76
2023-12-15T01:39:58.490Z,51.95
2023-12-15T01:40:58.611Z,51.44
2023-12-15T01:41:58.615Z,50.76
2023-12-15T01:42:58.669Z,51.63
2023-12-15T01:43:58.785Z,52.04
2023-12-15T01:44:58.789Z,52.15
2023-12-15T01:46:05.382Z,50.74
2023-12-15T01:46:59.919Z,50.86
2023-12-15T01:47:58.966Z,51.04
2023-12-15T01:48:58.929Z,50.96
2023-12-15T01:49:58.875Z,51.55
2023-12-15T01:50:58.862Z,52.58
2023-12-15T01:51:58.863Z,51.69
2023-12-15T01:52:58.895Z,50.90
2023-12-15T01:53:58.871Z,50.38
2023-12-15T01:54:58.873Z,50.33
2023-12-15T01:55:58.917Z,51.93
2023-12-15T01:56:58.952Z,50.00
2023-12-15T01:57:59.055Z,50.61
2023-12-15T01:58:59.111Z,51.49
2023-12-15T01:59:59.121Z,50.58
2023-12-15T02:00:59.240Z,50.70
2023-12-15T02:01:59.251Z,51.51
2023-12-15T02:02:59.325Z,51.55
2023-12-15T02:03:59.415Z,51.72
2023-12-15T02:04:59.481Z,51.22
2023-12-15T02:05:59.543Z,52.06
2023-12-15T02:06:59.563Z,50.10
2023-12-15T02:07:59.649Z,52.55
2023-12-15T02:08:59.675Z,50.87
2023-12-15T02:09:59.732Z,52.32
2023-12-15T02:10:59.844Z,50.73
2023-12-15T02:11:59.909Z,51.49
2023-12-15T02:13:00.447Z,50.15
2023-12-15T02:14:00.024Z,51.72
2023-12-15T02:15:00.048Z,52.16
2023-12-15T02:16:00.133Z,51.09
2023-12-15T02:17:00.202Z,51.13
2023-12-15T02:18:00.405Z,52.86
2023-12-15T02:19:00.344Z,50.56
2023-12-15T02:20:00.475Z,50.18
2023-12-15T02:21:00.403Z,51.26
2023-12-15T02:22:00.502Z,51.17
2023-12-15T02:23:00.786Z,52.53
2023-12-15T02:24:00.628Z,52.10
2023-12-15T02:25:00.678Z,51.33
2023-12-15T02:26:00.779Z,51.51
2023-12-15T02:27:00.814Z,51.85
2023-12-15T02:28:00.893Z,51.03
2023-12-15T02:29:00.969Z,52.05
2023-12-15T02:30:01.003Z,51.70
2023-12-15T02:31:01.079Z,50.00
2023-12-15T02:32:01.233Z,53.68
2023-12-15T02:33:01.315Z,52.63
2023-12-15T02:34:01.374Z,51.98
2023-12-15T02:35:01.361Z,51.83
2023-12-15T02:36:01.403Z,50.52
2023-12-15T02:37:01.462Z,52.37
2023-12-15T02:38:01.572Z,50.88
2023-12-15T02:39:01.583Z,52.46
2023-12-15T02:40:01.663Z,52.61
2023-12-15T02:41:01.788Z,50.45
2023-12-15T02:42:01.789Z,52.25
2023-12-15T02:43:01.863Z,52.65
2023-12-15T02:44:01.957Z,52.07
2023-12-15T02:45:02.006Z,51.04
2023-12-15T02:46:02.086Z,50.20
2023-12-15T02:47:02.195Z,52.01
2023-12-15T02:48:02.318Z,52.47
2023-12-15T02:49:02.371Z,51.10
2023-12-15T02:50:02.374Z,51.69
2023-12-15T02:51:02.382Z,50.44
2023-12-15T02:52:02.449Z,50.91
2023-12-15T02:53:02.546Z,51.18
2023-12-15T02:54:02.593Z,50.84
2023-12-15T02:55:02.695Z,50.34
2023-12-15T02:56:02.777Z,51.10
2023-12-15T02:57:02.802Z,51.34
2023-12-15T02:58:02.882Z,50.80
2023-12-15T02:59:02.992Z,51.16
2023-12-15T03:00:02.990Z,52.24
2023-12-15T03:01:03.115Z,51.35
2023-12-15T03:02:03.102Z,50.51
2023-12-15T03:03:03.246Z,52.05
2023-12-15T03:04:03.248Z,51.38
2023-12-15T03:05:03.407Z,53.30
2023-12-15T03:06:03.342Z,51.39
2023-12-15T03:07:03.389Z,52.29
2023-12-15T03:08:03.488Z,52.52
2023-12-15T03:09:03.507Z,52.31
2023-12-15T03:10:03.547Z,52.18
2023-12-15T03:11:03.629Z,53.40
2023-12-15T03:12:03.633Z,51.79
2023-12-15T03:13:03.674Z,53.31
2023-12-15T03:14:03.758Z,52.56
2023-12-15T03:15:03.782Z,53.66
2023-12-15T03:16:03.832Z,52.90
2023-12-15T03:17:03.929Z,52.36
2023-12-15T03:18:04.016Z,52.91
2023-12-15T03:19:04.006Z,51.89
2023-12-15T03:20:04.030Z,52.41
2023-12-15T03:21:04.044Z,53.02
2023-12-15T03:22:04.097Z,52.32
2023-12-15T03:23:04.185Z,54.82
2023-12-15T03:24:04.177Z,52.48
2023-12-15T03:25:04.229Z,52.37
2023-12-15T03:26:04.314Z,52.14
2023-12-15T03:27:04.374Z,52.67
2023-12-15T03:28:04.384Z,52.80
2023-12-15T03:29:04.486Z,53.04
2023-12-15T03:30:04.485Z,52.30
2023-12-15T03:31:04.604Z,52.76
2023-12-15T03:32:04.730Z,52.47
2023-12-15T03:33:04.820Z,52.96
2023-12-15T03:34:04.648Z,51.92
2023-12-15T03:35:04.710Z,51.27
2023-12-15T03:36:04.717Z,51.00
2023-12-15T03:37:04.769Z,51.38
2023-12-15T03:38:04.900Z,51.28
2023-12-15T03:39:04.864Z,51.13
2023-12-15T03:40:04.917Z,52.30
2023-12-15T03:41:04.987Z,51.74
2023-12-15T03:42:04.999Z,50.79
2023-12-15T03:43:05.086Z,51.60
2023-12-15T03:44:05.257Z,51.48
2023-12-15T03:45:05.165Z,51.41
2023-12-15T03:46:05.201Z,52.72
2023-12-15T03:47:05.280Z,51.73
2023-12-15T03:48:05.365Z,51.40
2023-12-15T03:49:05.428Z,51.05
2023-12-15T03:50:05.442Z,50.67
2023-12-15T03:51:05.460Z,50.33
2023-12-15T03:52:05.481Z,50.98
2023-12-15T03:53:05.612Z,51.33
2023-12-15T03:54:05.613Z,51.06
2023-12-15T03:55:05.651Z,50.27
2023-12-15T03:56:05.786Z,51.62
2023-12-15T03:57:05.742Z,51.27
2023-12-15T03:58:05.804Z,51.83
2023-12-15T03:59:05.883Z,50.62
2023-12-15T04:00:06.777Z,50.04
2023-12-15T04:01:06.017Z,51.58
2023-12-15T04:02:08.683Z,50.96
2023-12-15T04:03:06.014Z,52.68
2023-12-15T04:04:06.006Z,52.33
2023-12-15T04:05:06.070Z,51.13
2023-12-15T04:06:06.132Z,51.57
2023-12-15T04:07:06.012Z,50.95
2023-12-15T04:08:06.041Z,51.51
2023-12-15T04:09:06.038Z,51.64
2023-12-15T04:10:06.006Z,50.78
2023-12-15T04:11:06.141Z,52.16
2023-12-15T04:12:06.019Z,51.52
2023-12-15T04:13:06.014Z,51.32
2023-12-15T04:14:06.071Z,50.67
2023-12-15T04:15:06.088Z,50.87
2023-12-15T04:16:06.024Z,50.99
2023-12-15T04:17:06.119Z,50.52
2023-12-15T04:18:06.458Z,51.38
2023-12-15T04:19:06.190Z,51.27
2023-12-15T04:20:06.082Z,51.12
2023-12-15T04:21:06.036Z,51.53
2023-12-15T04:22:06.033Z,51.40
2023-12-15T04:23:06.082Z,50.67
2023-12-15T04:24:06.054Z,50.81
2023-12-15T04:25:06.069Z,51.67
2023-12-15T04:26:06.068Z,51.58
2023-12-15T04:27:06.052Z,50.89
2023-12-15T04:28:06.061Z,50.00
2023-12-15T04:29:06.079Z,51.35
2023-12-15T04:30:06.100Z,51.52
2023-12-15T04:31:06.036Z,52.21
2023-12-15T04:32:06.062Z,51.50
2023-12-15T04:33:06.123Z,51.23
2023-12-15T04:34:06.063Z,51.70
2023-12-15T04:35:06.067Z,51.34
2023-12-15T04:36:13.302Z,50.00
2023-12-15T04:37:13.310Z,50.00
2023-12-15T04:38:13.377Z,50.00
2023-12-15T04:39:13.304Z,50.00
2023-12-15T04:40:13.307Z,50.00
2023-12-15T04:41:13.345Z,50.00
2023-12-15T04:42:13.334Z,51.71
2023-12-15T04:43:13.317Z,51.17
2023-12-15T04:44:13.416Z,50.82
2023-12-15T04:45:13.326Z,51.11
2023-12-15T04:46:13.339Z,52.69
2023-12-15T04:47:13.348Z,51.55
2023-12-15T04:48:13.350Z,50.00
2023-12-15T04:49:13.364Z,51.25
2023-12-15T04:50:13.344Z,52.80
2023-12-15T04:51:13.327Z,51.97
2023-12-15T04:52:13.365Z,51.76
2023-12-15T04:53:13.372Z,51.52
2023-12-15T04:54:13.335Z,50.95
2023-12-15T04:55:13.385Z,52.83
2023-12-15T04:56:13.370Z,51.21
2023-12-15T04:57:13.337Z,51.90
2023-12-15T04:58:13.342Z,51.84
2023-12-15T04:59:13.626Z,51.39
2023-12-15T05:00:13.364Z,51.16
2023-12-15T05:01:13.392Z,51.45
2023-12-15T05:02:13.360Z,51.78
2023-12-15T05:03:13.436Z,51.73
2023-12-15T05:04:13.381Z,52.38
2023-12-15T05:05:13.439Z,51.72
2023-12-15T05:06:13.489Z,51.97
2023-12-15T05:07:13.496Z,51.79
2023-12-15T05:08:13.513Z,51.24
2023-12-15T05:09:13.555Z,51.82
2023-12-15T05:10:13.672Z,52.36
2023-12-15T05:11:13.620Z,52.06
2023-12-15T05:12:13.619Z,52.26
2023-12-15T05:13:13.638Z,52.22
2023-12-15T05:14:13.726Z,52.73
2023-12-15T05:15:13.701Z,53.15
2023-12-15T05:16:13.757Z,52.80
2023-12-15T05:17:13.839Z,52.70
2023-12-15T05:18:13.908Z,53.15
2023-12-15T05:19:13.809Z,53.20
2023-12-15T05:20:13.832Z,52.92
2023-12-15T05:21:13.857Z,54.56
2023-12-15T05:22:13.879Z,52.75
2023-12-15T05:23:13.884Z,53.89
2023-12-15T05:24:13.888Z,54.11
2023-12-15T05:25:13.911Z,52.46
2023-12-15T05:26:13.990Z,52.89
2023-12-15T05:27:13.949Z,52.72
2023-12-15T05:28:13.990Z,51.43
2023-12-15T05:29:14.051Z,53.12
2023-12-15T05:30:14.038Z,52.93
2023-12-15T05:31:14.006Z,53.27
2023-12-15T05:32:14.097Z,51.48
2023-12-15T05:33:14.186Z,52.18
2023-12-15T05:34:14.297Z,53.91
2023-12-15T05:35:14.122Z,54.49
2023-12-15T05:36:14.072Z,53.49
2023-12-15T05:37:14.256Z,53.48
2023-12-15T05:38:14.191Z,51.86
2023-12-15T05:39:14.151Z,53.32
2023-12-15T05:40:14.144Z,53.07
2023-12-15T05:41:14.196Z,54.10
2023-12-15T05:42:14.156Z,53.63
2023-12-15T05:43:14.177Z,53.22
2023-12-15T05:44:14.227Z,55.57
2023-12-15T05:45:14.218Z,54.95
2023-12-15T05:46:14.218Z,53.59
2023-12-15T05:47:14.297Z,53.26
2023-12-15T05:48:14.655Z,53.19
2023-12-15T05:49:14.519Z,51.71
2023-12-15T05:50:14.444Z,51.92
2023-12-15T05:51:14.344Z,55.89
2023-12-15T05:52:14.316Z,50.21
2023-12-15T05:53:14.377Z,52.12
2023-12-15T05:54:14.354Z,54.61
2023-12-15T05:55:14.355Z,54.56
2023-12-15T05:56:14.391Z,50.76
2023-12-15T05:57:15.021Z,53.30
2023-12-15T05:58:14.407Z,52.90
2023-12-15T05:59:14.423Z,54.58
2023-12-15T06:00:14.389Z,51.02
2023-12-15T06:01:14.432Z,54.19
2023-12-15T06:02:14.444Z,55.31
2023-12-15T06:03:14.496Z,50.34
2023-12-15T06:04:14.436Z,53.88
2023-12-15T06:05:14.575Z,53.76
2023-12-15T06:06:14.596Z,55.56
2023-12-15T06:07:14.489Z,54.20
2023-12-15T06:08:14.559Z,52.13
2023-12-15T06:09:14.513Z,53.46
2023-12-15T06:10:14.508Z,51.69
2023-12-15T06:11:14.571Z,54.13
2023-12-15T06:12:14.521Z,51.80
2023-12-15T06:13:14.537Z,53.81
2023-12-15T06:14:14.570Z,54.71
2023-12-15T06:15:14.650Z,52.63
2023-12-15T06:16:14.561Z,52.37
2023-12-15T06:17:14.594Z,52.56
2023-12-15T06:18:14.660Z,53.79
2023-12-15T06:19:14.713Z,54.75
2023-12-15T06:20:14.738Z,53.80
2023-12-15T06:21:14.581Z,51.66
2023-12-15T06:22:14.594Z,55.83
2023-12-15T06:23:14.731Z,52.10
2023-12-15T06:24:14.660Z,52.08
2023-12-15T06:25:14.652Z,53.21
2023-12-15T06:26:14.606Z,52.90
2023-12-15T06:27:14.605Z,53.22
2023-12-15T06:28:14.638Z,50.86
2023-12-15T06:29:14.751Z,55.72
2023-12-15T06:30:14.656Z,52.93
2023-12-15T06:31:14.625Z,52.57
2023-12-15T06:32:14.734Z,55.44
2023-12-15T06:33:14.702Z,52.48
2023-12-15T06:34:14.797Z,54.67
2023-12-15T06:35:14.719Z,54.05
2023-12-15T06:36:14.662Z,52.77
2023-12-15T06:37:14.718Z,52.86
2023-12-15T06:38:15.036Z,50.81
2023-12-15T06:39:14.705Z,52.89
2023-12-15T06:40:14.713Z,51.76
2023-12-15T06:41:14.732Z,52.75
2023-12-15T06:42:14.787Z,51.80
2023-12-15T06:43:14.825Z,54.72
2023-12-15T06:44:14.932Z,57.20
2023-12-15T06:45:14.984Z,60.38
2023-12-15T06:46:14.982Z,57.49
2023-12-15T06:47:15.116Z,66.93
2023-12-15T06:48:15.281Z,76.12
2023-12-15T06:49:17.967Z,81.96
2023-12-15T06:50:15.219Z,82.20
2023-12-15T06:51:15.171Z,83.33
2023-12-15T06:52:15.171Z,85.96
2023-12-15T06:53:15.199Z,91.52
2023-12-15T06:54:15.174Z,102.45
2023-12-15T06:55:15.167Z,105.78
2023-12-15T06:56:15.214Z,105.38
2023-12-15T06:57:15.200Z,108.96
2023-12-15T06:58:15.270Z,108.95
2023-12-15T06:59:15.237Z,109.63
2023-12-15T07:00:15.211Z,110.36
2023-12-15T07:01:15.352Z,111.44
2023-12-15T07:02:15.348Z,114.00
2023-12-15T07:03:15.249Z,116.73
2023-12-15T07:04:15.338Z,114.99
2023-12-15T07:05:15.251Z,116.42
2023-12-15T07:06:15.241Z,116.37
2023-12-15T07:07:15.190Z,115.46
2023-12-15T07:08:15.222Z,121.05
2023-12-15T07:09:17.192Z,119.59
2023-12-15T07:10:15.192Z,123.47
2023-12-15T07:11:15.236Z,125.70
2023-12-15T07:12:15.204Z,125.34
2023-12-15T07:13:15.191Z,126.56
2023-12-15T07:14:15.237Z,128.09
2023-12-15T07:15:15.185Z,127.20
2023-12-15T07:16:15.185Z,127.50
2023-12-15T07:17:15.251Z,127.37
2023-12-15T07:18:15.325Z,128.29
2023-12-15T07:19:15.250Z,129.49
2023-12-15T07:20:15.238Z,130.79
2023-12-15T07:21:15.214Z,131.03
2023-12-15T07:22:16.675Z,132.38
2023-12-15T07:23:16.109Z,132.45
2023-12-15T07:24:15.233Z,133.27
2023-12-15T07:25:15.193Z,134.26
2023-12-15T07:26:15.246Z,135.95
2023-12-15T07:27:15.215Z,136.98
2023-12-15T07:28:15.232Z,137.78
2023-12-15T07:29:15.230Z,137.52
2023-12-15T07:30:15.278Z,138.08
2023-12-15T07:31:15.219Z,138.91
2023-12-15T07:32:15.242Z,143.11
2023-12-15T07:33:15.326Z,143.63
2023-12-15T07:34:15.373Z,145.91
2023-12-15T07:35:21.050Z,147.87
2023-12-15T07:36:16.324Z,148.00
2023-12-15T07:37:15.232Z,148.50
2023-12-15T07:38:15.284Z,149.98
2023-12-15T07:39:15.254Z,151.36
2023-12-15T07:40:15.242Z,159.18
2023-12-15T07:41:15.257Z,162.92
2023-12-15T07:42:15.237Z,170.80
2023-12-15T07:43:15.278Z,174.47
2023-12-15T07:44:15.255Z,178.08
2023-12-15T07:45:15.226Z,179.86
2023-12-15T07:46:15.236Z,179.53
2023-12-15T07:47:15.280Z,179.57
2023-12-15T07:48:15.342Z,181.15
2023-12-15T07:49:15.288Z,180.97
2023-12-15T07:50:15.293Z,179.57
2023-12-15T07:51:15.275Z,180.74
2023-12-15T07:52:15.248Z,180.71
2023-12-15T07:53:15.317Z,176.35
2023-12-15T07:54:15.526Z,173.37
2023-12-15T07:55:15.286Z,172.76
2023-12-15T07:56:15.323Z,173.18
2023-12-15T07:57:15.286Z,169.85
2023-12-15T07:58:15.291Z,169.79
2023-12-15T07:59:16.376Z,164.73
2023-12-15T08:00:15.290Z,162.27
2023-12-15T08:01:15.332Z,161.69
2023-12-15T08:02:15.432Z,162.00
2023-12-15T08:03:15.388Z,158.95
2023-12-15T08:04:15.529Z,158.13
2023-12-15T08:05:15.488Z,153.82
2023-12-15T08:06:15.445Z,153.37
2023-12-15T08:07:15.396Z,152.61
2023-12-15T08:08:15.450Z,151.74
2023-12-15T08:09:15.451Z,151.61
2023-12-15T08:10:15.497Z,150.98
2023-12-15T08:11:15.749Z,151.11
2023-12-15T08:12:15.621Z,151.16
2023-12-15T08:13:15.798Z,151.85
2023-12-15T08:14:15.773Z,155.04
2023-12-15T08:15:15.834Z,155.66
2023-12-15T08:16:15.881Z,156.61
2023-12-15T08:17:15.981Z,159.98
2023-12-15T08:18:16.140Z,160.49
2023-12-15T08:19:16.097Z,163.66
2023-12-15T08:20:16.107Z,162.93
2023-12-15T08:21:16.119Z,165.06
2023-12-15T08:22:16.175Z,169.94
2023-12-15T08:23:16.234Z,168.55
2023-12-15T08:24:16.267Z,170.38
2023-12-15T08:25:16.285Z,170.90
2023-12-15T08:26:16.373Z,171.29
2023-12-15T08:27:16.345Z,173.03
2023-12-15T08:28:16.388Z,175.10
2023-12-15T08:29:16.490Z,177.66
2023-12-15T08:30:16.468Z,177.89
2023-12-15T08:31:16.514Z,178.37
2023-12-15T08:32:16.543Z,180.96
2023-12-15T08:33:16.621Z,183.02
2023-12-15T08:34:17.075Z,191.82
2023-12-15T08:35:16.624Z,188.68
2023-12-15T08:36:16.624Z,194.73
2023-12-15T08:37:16.710Z,195.47
2023-12-15T08:38:16.721Z,199.25
2023-12-15T08:39:18.117Z,198.26
2023-12-15T08:40:16.803Z,199.09
2023-12-15T08:41:16.864Z,198.77
2023-12-15T08:42:16.916Z,199.41
2023-12-15T08:43:16.949Z,198.02
2023-12-15T08:44:24.508Z,198.63
2023-12-15T08:45:18.115Z,198.69
2023-12-15T08:46:17.015Z,198.83
2023-12-15T08:47:17.029Z,199.36
2023-12-15T08:48:17.138Z,200.45
2023-12-15T08:49:17.096Z,197.63
2023-12-15T08:50:17.058Z,199.85
2023-12-15T08:51:17.010Z,198.29
2023-12-15T08:52:17.058Z,196.91
2023-12-15T08:53:17.209Z,198.30
2023-12-15T08:54:18.039Z,197.40
2023-12-15T08:55:17.246Z,197.45
2023-12-15T08:56:17.593Z,196.64
2023-12-15T08:57:17.519Z,195.95
2023-12-15T08:58:17.421Z,196.62
2023-12-15T08:59:17.531Z,196.18
2023-12-15T09:00:17.627Z,195.48
2023-12-15T09:01:17.668Z,195.23
2023-12-15T09:02:17.659Z,195.20
2023-12-15T09:03:17.689Z,195.17
2023-12-15T09:04:17.696Z,194.95
2023-12-15T09:05:30.797Z,196.58
2023-12-15T09:06:26.521Z,196.66
2023-12-15T09:07:18.810Z,196.68
2023-12-15T09:08:17.864Z,196.77
2023-12-15T09:09:17.749Z,196.61
2023-12-15T09:10:17.744Z,196.64
2023-12-15T09:11:17.754Z,195.84
2023-12-15T09:12:17.722Z,194.50
2023-12-15T09:13:17.729Z,196.33
2023-12-15T09:14:17.793Z,194.56
2023-12-15T09:15:17.733Z,195.30
2023-12-15T09:16:17.780Z,193.52
2023-12-15T09:17:17.778Z,191.52
2023-12-15T09:18:17.789Z,193.04
2023-12-15T09:19:17.842Z,193.26
2023-12-15T09:20:17.823Z,192.61
2023-12-15T09:21:17.764Z,192.07
2023-12-15T09:22:17.751Z,193.07
2023-12-15T09:23:17.772Z,191.08
2023-12-15T09:24:17.776Z,190.19
2023-12-15T09:25:17.780Z,192.64
2023-12-15T09:26:17.896Z,190.98
2023-12-15T09:27:17.786Z,185.11
2023-12-15T09:28:17.798Z,178.59
2023-12-15T09:29:18.132Z,179.04
2023-12-15T09:30:17.811Z,175.44
2023-12-15T09:31:17.767Z,175.41
2023-12-15T09:32:17.795Z,172.83
2023-12-15T09:33:17.833Z,167.98
2023-12-15T09:34:18.146Z,165.54
2023-12-15T09:35:17.893Z,162.28
2023-12-15T09:36:17.863Z,160.97
2023-12-15T09:37:17.790Z,158.74
2023-12-15T09:38:17.873Z,155.36
2023-12-15T09:39:17.872Z,153.20
2023-12-15T09:40:17.797Z,149.86
2023-12-15T09:41:17.825Z,146.02
2023-12-15T09:42:17.795Z,143.99
2023-12-15T09:43:17.806Z,140.63
2023-12-15T09:44:18.155Z,135.95
2023-12-15T09:45:17.870Z,130.83
2023-12-15T09:46:17.811Z,122.99
2023-12-15T09:47:17.874Z,118.44
2023-12-15T09:48:17.962Z,117.63
2023-12-15T09:49:18.113Z,110.82
2023-12-15T09:50:18.011Z,109.59
2023-12-15T09:51:17.804Z,107.13
2023-12-15T09:52:17.816Z,106.21
2023-12-15T09:53:17.822Z,104.31
2023-12-15T09:54:18.072Z,103.26
2023-12-15T09:55:17.881Z,104.70
2023-12-15T09:56:18.017Z,101.97
2023-12-15T09:57:18.063Z,99.17
2023-12-15T09:58:18.095Z,98.35
2023-12-15T09:59:18.239Z,101.50
2023-12-15T10:00:18.251Z,98.48
2023-12-15T10:01:18.380Z,99.52
2023-12-15T10:02:18.450Z,97.59
2023-12-15T10:03:18.530Z,96.16
2023-12-15T10:04:18.588Z,96.51
2023-12-15T10:05:18.631Z,93.85
2023-12-15T10:06:18.689Z,92.26
2023-12-15T10:07:18.736Z,91.82
2023-12-15T10:08:18.813Z,94.16
2023-12-15T10:09:18.886Z,93.40
2023-12-15T10:10:18.893Z,91.74
2023-12-15T10:11:19.049Z,92.01
2023-12-15T10:12:18.994Z,92.58
2023-12-15T10:13:19.008Z,90.58
2023-12-15T10:14:18.990Z,92.24
2023-12-15T10:15:19.032Z,86.95
2023-12-15T10:16:19.014Z,87.27
2023-12-15T10:17:19.017Z,86.03
2023-12-15T10:18:26.551Z,88.31
2023-12-15T10:19:20.132Z,87.57
2023-12-15T10:20:19.144Z,87.01
2023-12-15T10:21:19.051Z,82.52
2023-12-15T10:22:19.028Z,81.75
2023-12-15T10:23:19.052Z,80.60
2023-12-15T10:24:19.056Z,80.15
2023-12-15T10:25:19.029Z,80.46
2023-12-15T10:26:19.120Z,73.99
2023-12-15T10:27:19.031Z,72.68
2023-12-15T10:28:19.037Z,72.88
2023-12-15T10:29:19.180Z,72.87
2023-12-15T10:30:19.148Z,66.50
2023-12-15T10:31:19.046Z,54.65
2023-12-15T10:32:19.073Z,63.54
2023-12-15T10:33:19.134Z,68.63
2023-12-15T10:34:19.129Z,65.12
2023-12-15T10:35:19.310Z,64.85
2023-12-15T10:36:19.218Z,65.33
2023-12-15T10:37:19.273Z,62.54
2023-12-15T10:38:19.363Z,62.20
2023-12-15T10:39:19.414Z,64.21
2023-12-15T10:40:19.461Z,63.33
2023-12-15T10:41:19.576Z,65.92
2023-12-15T10:42:19.566Z,65.27
2023-12-15T10:43:19.616Z,67.08
2023-12-15T10:44:19.679Z,69.05
2023-12-15T10:45:19.711Z,77.75
2023-12-15T10:46:19.746Z,82.92
2023-12-15T10:47:19.840Z,85.39
2023-12-15T10:48:20.028Z,88.90
2023-12-15T10:49:19.973Z,92.01
2023-12-15T10:50:19.964Z,91.91
2023-12-15T10:51:19.905Z,96.91
2023-12-15T10:52:19.945Z,99.04
2023-12-15T10:53:19.967Z,102.50
2023-12-15T10:54:20.122Z,103.45
2023-12-15T10:55:20.024Z,101.46
2023-12-15T10:56:20.047Z,99.34
2023-12-15T10:57:20.040Z,99.89
2023-12-15T10:58:20.066Z,98.50
2023-12-15T10:59:20.107Z,102.33
2023-12-15T11:00:20.088Z,102.38
2023-12-15T11:01:20.147Z,102.51
2023-12-15T11:02:20.126Z,109.12
2023-12-15T11:03:20.182Z,122.36
2023-12-15T11:04:20.116Z,127.50
2023-12-15T11:05:29.493Z,125.55
2023-12-15T11:06:21.243Z,125.71
2023-12-15T11:07:20.141Z,125.92
2023-12-15T11:08:20.165Z,126.39
2023-12-15T11:09:20.147Z,122.81
2023-12-15T11:10:20.128Z,122.42
2023-12-15T11:11:20.258Z,123.55
2023-12-15T11:12:20.169Z,126.87
2023-12-15T11:13:20.132Z,125.97
2023-12-15T11:14:20.187Z,125.94
2023-12-15T11:15:20.147Z,126.93
2023-12-15T11:16:20.175Z,123.80
2023-12-15T11:17:20.196Z,124.10
2023-12-15T11:18:20.453Z,120.23
2023-12-15T11:19:20.239Z,119.36
2023-12-15T11:20:20.260Z,119.50
2023-12-15T11:21:20.180Z,117.44
2023-12-15T11:22:20.175Z,115.10
2023-12-15T11:23:20.241Z,116.56
2023-12-15T11:24:20.611Z,117.04
2023-12-15T11:25:20.170Z,117.56
2023-12-15T11:26:20.232Z,114.06
2023-12-15T11:27:20.182Z,111.58
2023-12-15T11:28:20.224Z,114.09
2023-12-15T11:29:20.625Z,110.80
2023-12-15T11:30:20.206Z,112.92
2023-12-15T11:31:20.214Z,109.83
2023-12-15T11:32:20.251Z,106.72
2023-12-15T11:33:20.683Z,103.62
2023-12-15T11:34:20.234Z,101.97
2023-12-15T11:35:20.262Z,97.42
2023-12-15T11:36:20.190Z,98.98
2023-12-15T11:37:20.195Z,98.60
2023-12-15T11:38:20.674Z,97.78
2023-12-15T11:39:20.640Z,99.25
2023-12-15T11:40:20.227Z,96.51
2023-12-15T11:41:20.239Z,101.93
2023-12-15T11:42:20.232Z,101.41
2023-12-15T11:43:20.622Z,99.70
2023-12-15T11:44:20.295Z,102.73
2023-12-15T11:45:20.332Z,101.29
2023-12-15T11:46:20.265Z,105.87
2023-12-15T11:47:20.331Z,104.50
2023-12-15T11:48:20.736Z,104.77
2023-12-15T11:49:20.375Z,105.46
2023-12-15T11:50:20.380Z,107.84
2023-12-15T11:51:21.118Z,109.41
2023-12-15T11:52:20.396Z,109.41
2023-12-15T11:53:20.759Z,110.77
2023-12-15T11:54:20.647Z,109.89
2023-12-15T11:55:20.427Z,108.77
2023-12-15T11:56:20.459Z,107.79
2023-12-15T11:57:20.442Z,111.28
2023-12-15T11:58:20.454Z,111.93
2023-12-15T11:59:20.494Z,113.19
2023-12-15T12:00:20.460Z,115.72
2023-12-15T12:01:20.508Z,114.03
2023-12-15T12:02:20.495Z,116.80
2023-12-15T12:03:20.526Z,117.63
2023-12-15T12:04:20.712Z,115.58
2023-12-15T12:05:20.671Z,119.70
2023-12-15T12:06:20.634Z,119.85
2023-12-15T12:07:20.623Z,121.45
2023-12-15T12:08:20.657Z,120.84
2023-12-15T12:09:20.675Z,124.47
2023-12-15T12:10:20.741Z,123.49
2023-12-15T12:11:20.831Z,129.16
2023-12-15T12:12:20.864Z,126.93
2023-12-15T12:13:20.932Z,125.32
2023-12-15T12:14:21.036Z,124.86
2023-12-15T12:15:21.110Z,125.21
2023-12-15T12:16:21.158Z,129.05
2023-12-15T12:17:21.248Z,129.79
2023-12-15T12:18:21.353Z,131.23
2023-12-15T12:19:21.392Z,132.00
2023-12-15T12:20:21.542Z,134.46
2023-12-15T12:21:21.490Z,135.71
2023-12-15T12:22:21.555Z,136.82
2023-12-15T12:23:28.196Z,137.60
2023-12-15T12:24:23.139Z,137.75
2023-12-15T12:25:21.632Z,138.27
2023-12-15T12:26:21.670Z,138.98
2023-12-15T12:27:21.649Z,138.61
2023-12-15T12:28:21.652Z,141.67
2023-12-15T12:29:22.166Z,141.48
2023-12-15T12:30:21.650Z,140.00
2023-12-15T12:31:21.852Z,139.40
2023-12-15T12:32:21.657Z,139.81
2023-12-15T12:33:21.905Z,140.02
2023-12-15T12:34:22.217Z,140.08
2023-12-15T12:35:21.680Z,138.89
2023-12-15T12:36:21.652Z,142.68
2023-12-15T12:37:21.668Z,142.12
2023-12-15T12:38:21.682Z,143.06
2023-12-15T12:39:22.164Z,142.94
2023-12-15T12:40:21.667Z,141.05
2023-12-15T12:41:21.690Z,141.33
2023-12-15T12:42:21.675Z,141.46
2023-12-15T12:43:21.660Z,139.82
2023-12-15T12:44:22.229Z,139.71